Time,TemperatureF,DewpointF,PressureIn,WindDirection,WindDirectionDegrees,WindSpeedMPH,WindSpeedGustMPH,Humidity,HourlyPrecipIn,Conditions,Clouds,dailyrainin,SoftwareType,DateUTC
2013-04-05 00:03:00,41.0,31.0,-100.00,SSW,206,7.0,-999.0,68,0.00,,,0.00,,2013-04-05 04:03:00,
2013-04-05 00:13:00,41.0,31.0,-100.00,SSW,206,7.0,-999.0,68,0.00,,,0.00,,2013-04-05 04:13:00,
2013-04-05 00:52:00,40.0,34.0,-100.00,SW,220,3.0,-999.0,80,0.00,,,0.00,,2013-04-05 04:52:00,
2013-04-05 01:02:00,40.0,34.0,-100.00,SW,220,3.0,-999.0,80,0.00,,,0.00,,2013-04-05 05:02:00,
2013-04-05 01:13:00,40.0,34.0,-100.00,SW,220,3.0,-999.0,80,0.00,,,0.00,,2013-04-05 05:13:00,
2013-04-05 01:53:00,40.0,35.0,-100.00,WSW,249,2.0,-999.0,82,0.02,,,0.02,,2013-04-05 05:53:00,
2013-04-05 02:03:00,40.0,35.0,-100.00,WSW,249,2.0,-999.0,82,0.02,,,0.02,,2013-04-05 06:03:00,
2013-04-05 02:12:00,40.0,35.0,-100.00,WSW,249,2.0,-999.0,82,0.02,,,0.02,,2013-04-05 06:12:00,
2013-04-05 02:52:00,40.0,36.0,-100.00,East,92,1.0,-999.0,84,0.08,,,0.10,,2013-04-05 06:52:00,
2013-04-05 03:03:00,40.0,36.0,-100.00,East,92,1.0,-999.0,84,0.08,,,0.10,,2013-04-05 07:03:00,
2013-04-05 03:12:00,40.0,36.0,-100.00,East,92,1.0,-999.0,84,0.08,,,0.10,,2013-04-05 07:12:00,
2013-04-05 03:53:00,38.0,35.0,-100.00,ENE,67,2.0,-999.0,88,0.06,,,0.16,,2013-04-05 07:53:00,
2013-04-05 04:03:00,38.0,35.0,-100.00,ENE,67,2.0,-999.0,88,0.06,,,0.16,,2013-04-05 08:03:00,
2013-04-05 04:13:00,38.0,35.0,-100.00,ENE,67,2.0,-999.0,88,0.06,,,0.16,,2013-04-05 08:13:00,
2013-04-05 04:52:00,38.0,38.0,-100.00,NNE,30,5.0,-999.0,100,0.12,,,0.28,,2013-04-05 08:52:00,
2013-04-05 05:02:00,38.0,38.0,-100.00,NNE,30,5.0,-999.0,100,0.12,,,0.28,,2013-04-05 09:02:00,
2013-04-05 05:12:00,38.0,38.0,-100.00,NNE,30,5.0,-999.0,100,0.12,,,0.28,,2013-04-05 09:12:00,
2013-04-05 05:53:00,39.0,39.0,-100.00,NNE,33,7.0,-999.0,100,0.24,,,0.52,,2013-04-05 09:53:00,
2013-04-05 06:03:00,39.0,39.0,-100.00,NNE,33,7.0,-999.0,100,0.24,,,0.52,,2013-04-05 10:03:00,
2013-04-05 06:13:00,39.0,39.0,-100.00,NNE,33,7.0,-999.0,100,0.24,,,0.52,,2013-04-05 10:13:00,
2013-04-05 06:53:00,38.0,38.0,-100.00,NNE,23,7.0,-999.0,100,0.18,,,0.70,,2013-04-05 10:53:00,
2013-04-05 07:03:00,38.0,38.0,-100.00,NNE,23,7.0,-999.0,100,0.18,,,0.70,,2013-04-05 11:03:00,
2013-04-05 07:13:00,38.0,38.0,-100.00,NNE,23,7.0,-999.0,100,0.18,,,0.70,,2013-04-05 11:13:00,
2013-04-05 07:52:00,40.0,40.0,-100.00,NNE,32,7.0,-999.0,100,0.07,,,0.77,,2013-04-05 11:52:00,
2013-04-05 08:02:00,40.0,40.0,-100.00,NNE,32,7.0,-999.0,100,0.07,,,0.77,,2013-04-05 12:02:00,
2013-04-05 08:12:00,40.0,40.0,-100.00,NNE,32,7.0,-999.0,100,0.07,,,0.77,,2013-04-05 12:12:00,
2013-04-05 08:53:00,40.0,40.0,-100.00,NE,40,7.0,-999.0,100,0.07,,,0.84,,2013-04-05 12:53:00,
2013-04-05 09:02:00,40.0,40.0,-100.00,NE,40,7.0,-999.0,100,0.07,,,0.84,,2013-04-05 13:02:00,
2013-04-05 09:12:00,40.0,40.0,-100.00,NE,40,7.0,-999.0,100,0.07,,,0.84,,2013-04-05 13:12:00,
2013-04-05 09:53:00,42.0,42.0,-100.00,NNE,29,7.0,-999.0,100,0.04,,,0.88,,2013-04-05 13:53:00,
2013-04-05 10:03:00,42.0,42.0,-100.00,NNE,29,7.0,-999.0,100,0.04,,,0.88,,2013-04-05 14:03:00,
2013-04-05 10:12:00,42.0,42.0,-100.00,NNE,29,7.0,-999.0,100,0.04,,,0.88,,2013-04-05 14:12:00,
2013-04-05 10:55:00,45.0,45.0,-100.00,North,358,8.0,-999.0,100,0.00,,,0.88,,2013-04-05 14:55:00,
2013-04-05 11:02:00,45.0,45.0,-100.00,North,358,8.0,-999.0,100,0.00,,,0.88,,2013-04-05 15:02:00,
2013-04-05 11:13:00,45.0,45.0,-100.00,North,358,8.0,-999.0,100,0.00,,,0.88,,2013-04-05 15:13:00,
2013-04-05 11:55:00,47.0,47.0,-100.00,NW,324,10.0,-999.0,100,0.01,,,0.89,,2013-04-05 15:55:00,
2013-04-05 12:03:00,47.0,47.0,-100.00,NW,324,10.0,-999.0,100,0.01,,,0.89,,2013-04-05 16:03:00,
2013-04-05 12:14:00,47.0,47.0,-100.00,NW,324,10.0,-999.0,100,0.01,,,0.89,,2013-04-05 16:14:00,
2013-04-05 12:53:00,51.0,41.0,-100.00,NW,326,14.0,-999.0,69,0.00,,,0.89,,2013-04-05 16:53:00,
2013-04-05 13:04:00,51.0,41.0,-100.00,NW,326,14.0,-999.0,69,0.00,,,0.89,,2013-04-05 17:04:00,
2013-04-05 13:13:00,51.0,41.0,-100.00,NW,326,14.0,-999.0,69,0.00,,,0.89,,2013-04-05 17:13:00,
2013-04-05 13:53:00,50.0,39.0,-100.00,WNW,293,14.0,-999.0,66,0.00,,,0.89,,2013-04-05 17:53:00,
2013-04-05 14:03:00,50.0,39.0,-100.00,WNW,293,14.0,-999.0,66,0.00,,,0.89,,2013-04-05 18:03:00,
2013-04-05 14:13:00,50.0,39.0,-100.00,WNW,293,14.0,-999.0,66,0.00,,,0.89,,2013-04-05 18:13:00,
2013-04-05 14:53:00,55.0,38.0,-100.00,NW,306,17.0,-999.0,53,0.00,,,0.89,,2013-04-05 18:53:00,
2013-04-05 15:02:00,55.0,38.0,-100.00,NW,306,17.0,-999.0,53,0.00,,,0.89,,2013-04-05 19:02:00,
2013-04-05 15:14:00,55.0,38.0,-100.00,NW,306,17.0,-999.0,53,0.00,,,0.89,,2013-04-05 19:14:00,
2013-04-05 15:53:00,56.0,34.0,-100.00,WNW,296,16.0,-999.0,43,0.00,,,0.89,,2013-04-05 19:53:00,
2013-04-05 16:03:00,56.0,34.0,-100.00,WNW,296,16.0,-999.0,43,0.00,,,0.89,,2013-04-05 20:03:00,
2013-04-05 16:11:00,56.0,34.0,-100.00,WNW,296,16.0,-999.0,43,0.00,,,0.89,,2013-04-05 20:11:00,
2013-04-05 16:53:00,55.0,29.0,-100.00,WNW,290,17.0,-999.0,36,0.00,,,0.89,,2013-04-05 20:53:00,
2013-04-05 17:03:00,55.0,29.0,-100.00,WNW,290,17.0,-999.0,36,0.00,,,0.89,,2013-04-05 21:03:00,
2013-04-05 17:13:00,55.0,29.0,-100.00,WNW,290,17.0,-999.0,36,0.00,,,0.89,,2013-04-05 21:13:00,
2013-04-05 17:55:00,57.0,22.0,-100.00,WNW,295,20.0,-999.0,25,0.00,,,0.89,,2013-04-05 21:55:00,
2013-04-05 18:04:00,57.0,22.0,-100.00,WNW,295,20.0,-999.0,25,0.00,,,0.89,,2013-04-05 22:04:00,
2013-04-05 18:13:00,57.0,22.0,-100.00,WNW,295,20.0,-999.0,25,0.00,,,0.89,,2013-04-05 22:13:00,
2013-04-05 18:53:00,58.0,29.0,-100.00,West,280,13.0,-999.0,33,0.00,,,0.89,,2013-04-05 22:53:00,
2013-04-05 19:03:00,58.0,29.0,-100.00,West,280,13.0,-999.0,33,0.00,,,0.89,,2013-04-05 23:03:00,
2013-04-05 19:13:00,58.0,29.0,-100.00,West,280,13.0,-999.0,33,0.00,,,0.89,,2013-04-05 23:13:00,
2013-04-05 19:53:00,55.0,33.0,-100.00,WNW,302,11.0,-999.0,43,0.00,,,0.89,,2013-04-05 23:53:00,
2013-04-05 20:03:00,55.0,33.0,-100.00,WNW,302,11.0,-999.0,43,0.00,,,0.89,,2013-04-06 00:03:00,
2013-04-05 20:13:00,55.0,33.0,-100.00,WNW,302,11.0,-999.0,43,0.00,,,0.89,,2013-04-06 00:13:00,
2013-04-05 20:53:00,51.0,33.0,-100.00,WNW,294,4.0,-999.0,49,-99.99,,,0.00,,2013-04-06 00:53:00,
2013-04-05 21:02:00,51.0,33.0,-100.00,WNW,294,4.0,-999.0,49,-99.99,,,0.00,,2013-04-06 01:02:00,
2013-04-05 21:13:00,51.0,33.0,-100.00,WNW,294,4.0,-999.0,49,-99.99,,,0.00,,2013-04-06 01:13:00,
2013-04-05 21:53:00,52.0,35.0,-100.00,West,268,5.0,-999.0,52,0.00,,,0.00,,2013-04-06 01:53:00,
2013-04-05 22:03:00,52.0,35.0,-100.00,West,268,5.0,-999.0,52,0.00,,,0.00,,2013-04-06 02:03:00,
2013-04-05 22:12:00,52.0,35.0,-100.00,West,268,5.0,-999.0,52,0.00,,,0.00,,2013-04-06 02:12:00,
2013-04-05 22:53:00,50.0,39.0,-100.00,West,276,5.0,-999.0,66,0.00,,,0.00,,2013-04-06 02:53:00,
2013-04-05 23:03:00,50.0,39.0,-100.00,West,276,5.0,-999.0,66,0.00,,,0.00,,2013-04-06 03:03:00,
2013-04-05 23:13:00,50.0,39.0,-100.00,West,276,5.0,-999.0,66,0.00,,,0.00,,2013-04-06 03:13:00,
2013-04-05 23:55:00,48.0,33.0,-100.00,WNW,300,8.0,-999.0,56,0.00,,,0.00,,2013-04-06 03:55:00,